Time;durP1;ratioP1;P1;durP2;ratioP2;P2;SDS_P1;SDS_P2;PMS_P1;PMS_P2;Temp;Humidity;BMP_temperature;BMP_pressure;BME280_temperature;BME280_humidity;BME280_pressure;Samples;Min_cycle;Max_cycle;Signal;HPM_P1;HPM_P2
2022/06/12 00:00:04;;;;;;;10.88;2.92;;;;;;;-148.88;65.76;75649.25;5028607;28;20396;-83
2022/06/12 00:02:30;;;;;;;12.25;4.47;;;;;;;-148.88;66.58;75659.41;5028272;28;20026;-83
2022/06/12 00:04:55;;;;;;;14.48;3.97;;;;;;;-148.88;66.93;75667.53;5013190;28;20032;-83
2022/06/12 00:07:20;;;;;;;12.43;4.22;;;;;;;-148.88;67.00;75671.59;5013238;28;20038;-84
2022/06/12 00:09:46;;;;;;;15.70;3.88;;;;;;;-148.88;67.43;75669.56;5012921;28;20044;-83
2022/06/12 00:12:11;;;;;;;15.73;4.30;;;;;;;-148.88;67.33;75665.50;5013011;28;20037;-83
2022/06/12 00:14:36;;;;;;;13.52;4.05;;;;;;;-148.88;67.91;75671.59;5012725;28;20033;-83
2022/06/12 00:17:02;;;;;;;12.70;3.65;;;;;;;-148.88;67.74;75675.66;5028072;28;20033;-83
2022/06/12 00:19:30;;;;;;;11.98;3.75;;;;;;;-148.88;68.39;75675.66;5011222;28;20029;-83
2022/06/12 00:21:56;;;;;;;10.25;3.70;;;;;;;-148.88;68.34;75675.66;5012632;28;20100;-84
2022/06/12 00:24:24;;;;;;;17.45;4.28;;;;;;;-148.88;68.91;75693.94;5011241;28;20125;-83
2022/06/12 00:26:51;;;;;;;13.95;3.88;;;;;;;-148.88;69.36;75708.16;5015189;28;20484;-84
2022/06/12 00:29:20;;;;;;;15.93;3.75;;;;;;;-148.88;69.45;75695.97;5031513;28;20485;-84
2022/06/12 00:31:52;;;;;;;14.63;4.07;;;;;;;-148.88;69.83;75700.03;5016080;28;20044;-83
2022/06/12 00:34:21;;;;;;;11.52;3.83;;;;;;;-148.88;70.12;75706.13;5016686;28;20507;-83
2022/06/12 00:36:46;;;;;;;11.98;3.83;;;;;;;-148.88;70.16;75708.16;5016393;28;20029;-83
2022/06/12 00:39:12;;;;;;;15.70;4.38;;;;;;;-148.88;70.26;75704.09;5016395;28;20028;-83
2022/06/12 00:41:41;;;;;;;13.30;4.18;;;;;;;-148.88;70.41;75695.97;5016614;28;20030;-83
2022/06/12 00:44:07;;;;;;;17.10;4.75;;;;;;;-148.88;70.78;75700.03;5021128;28;20017;-83
2022/06/12 00:46:55;;;;;;;14.15;4.05;;;;;;;-148.88;70.96;75708.16;5020263;28;20496;-83
2022/06/12 00:49:31;;;;;;;17.02;4.85;;;;;;;-148.88;71.40;75724.41;5019752;28;20322;-84
2022/06/12 00:52:04;;;;;;;13.30;4.10;;;;;;;-148.88;70.95;75708.16;5018153;28;20076;-83
2022/06/12 00:54:30;;;;;;;12.90;4.00;;;;;;;-148.88;72.10;75730.50;5031382;28;20022;-83
2022/06/12 00:56:59;;;;;;;13.35;3.95;;;;;;;-148.88;71.75;75732.53;5014612;28;20105;-83
2022/06/12 00:59:30;;;;;;;13.85;4.38;;;;;;;-148.88;72.83;75740.66;5031094;28;20025;-83
2022/06/12 01:01:55;;;;;;;16.42;4.47;;;;;;;-148.88;73.75;75744.72;5015711;28;20022;-82
2022/06/12 01:07:09;;;;;;;15.07;4.35;;;;;;;-148.88;74.51;75752.84;5016238;28;20551;-83
2022/06/12 01:09:39;;;;;;;12.35;3.90;;;;;;;-148.88;74.26;75763.00;5014312;28;20022;-83
2022/06/12 01:12:08;;;;;;;18.73;4.20;;;;;;;-148.88;74.19;75769.09;5015643;28;20022;-82
2022/06/12 01:14:37;;;;;;;13.45;4.50;;;;;;;-148.88;74.71;75760.97;5030783;28;20029;-83
2022/06/12 01:17:04;;;;;;;26.38;4.40;;;;;;;-148.88;74.96;75773.16;5015389;28;20389;-84
2022/06/12 01:19:39;;;;;;;15.73;4.78;;;;;;;-148.88;75.22;75769.09;5017898;28;20034;-84
2022/06/12 01:22:31;;;;;;;17.15;4.15;;;;;;;-148.88;75.78;75785.34;5016231;28;20021;-84
2022/06/12 01:25:28;;;;;;;12.73;4.57;;;;;;;-148.88;76.36;75795.50;5018300;28;20101;-84
2022/06/12 01:28:25;;;;;;;19.58;4.78;;;;;;;-148.88;76.47;75801.59;5016835;28;20053;-83
2022/06/12 01:31:15;;;;;;;16.65;4.90;;;;;;;-148.88;76.44;75793.47;5016294;28;20029;-84
2022/06/12 01:34:08;;;;;;;15.10;5.07;;;;;;;-148.88;76.42;75795.50;5013454;28;20034;-84
2022/06/12 01:36:57;;;;;;;16.23;4.37;;;;;;;-148.88;76.62;75805.66;5015224;28;20484;-82
2022/06/12 01:39:49;;;;;;;21.20;4.70;;;;;;;-148.88;77.00;75793.47;5013905;28;20022;-83
2022/06/12 01:42:40;;;;;;;18.17;5.05;;;;;;;-148.88;76.67;75793.47;5030619;28;20392;-84
2022/06/12 01:45:14;;;;;;;12.73;3.90;;;;;;;-148.88;77.69;75797.53;5014072;28;20042;-84
2022/06/12 01:48:02;;;;;;;15.50;4.55;;;;;;;-148.88;78.02;75819.88;5015243;28;20033;-83
2022/06/12 01:50:46;;;;;;;16.65;4.28;;;;;;;-148.88;78.94;75844.25;5015329;28;20022;-83
2022/06/12 01:53:25;;;;;;;16.60;4.70;;;;;;;-148.88;79.29;75840.19;5013846;28;20025;-84
2022/06/12 01:56:26;;;;;;;18.05;4.93;;;;;;;-148.88;78.94;75852.38;5016473;28;20032;-84
2022/06/12 01:59:00;;;;;;;13.15;5.60;;;;;;;-148.88;78.76;75856.44;5031975;28;20519;-84
2022/06/12 02:01:38;;;;;;;14.60;5.22;;;;;;;-148.88;78.97;75872.69;5017345;28;20017;-84
2022/06/12 02:04:30;;;;;;;13.93;4.85;;;;;;;-148.88;78.60;75866.59;5017127;28;20025;-84
2022/06/12 02:07:09;;;;;;;12.40;4.25;;;;;;;-148.88;78.34;75870.66;5016874;28;20173;-84
2022/06/12 02:09:47;;;;;;;10.65;4.32;;;;;;;-148.88;78.74;75878.78;5015766;28;20425;-84
2022/06/12 02:15:31;;;;;;;11.73;4.90;;;;;;;-148.88;79.06;75874.72;5014815;28;20088;-83
2022/06/12 02:18:05;;;;;;;13.27;4.43;;;;;;;-148.88;78.99;75868.63;5014294;28;20121;-83
2022/06/12 02:20:38;;;;;;;13.38;4.35;;;;;;;-148.88;78.42;75876.75;5012959;28;20037;-82
2022/06/12 02:23:10;;;;;;;13.98;4.38;;;;;;;-148.88;78.89;75858.47;5029351;28;20022;-84
2022/06/12 02:25:40;;;;;;;11.77;4.22;;;;;;;-148.88;77.62;75860.50;5012829;28;20136;-83
2022/06/12 02:28:15;;;;;;;14.18;4.25;;;;;;;-148.88;77.49;75856.44;5029302;28;20036;-83
2022/06/12 02:30:44;;;;;;;10.90;4.18;;;;;;;-148.88;76.88;75864.56;5013838;28;20141;-83
2022/06/12 02:33:18;;;;;;;10.65;3.80;;;;;;;-148.88;77.25;75866.59;5015532;28;20028;-84
2022/06/12 02:35:49;;;;;;;;;;;;;;;-148.88;77.11;75874.72;5016094;28;20124;-84
2022/06/12 02:38:23;;;;;;;9.98;4.10;;;;;;;-148.88;79.03;75890.97;5013971;28;19909;-84
2022/06/12 02:40:51;;;;;;;;;;;;;;;-148.88;79.73;75895.03;5015674;28;20028;-84
2022/06/12 02:43:22;;;;;;;12.30;4.90;;;;;;;-148.88;80.13;75901.13;5015297;28;19909;-84
2022/06/12 02:45:56;;;;;;;12.38;4.70;;;;;;;-148.88;79.60;75899.09;5014365;28;20133;-83
2022/06/12 02:48:21;;;;;;;11.65;4.40;;;;;;;-148.88;80.07;75903.16;5012925;28;20412;-84
2022/06/12 02:51:17;;;;;;;14.73;5.05;;;;;;;-148.88;79.57;75901.13;5013586;28;20121;-83
2022/06/12 02:54:15;;;;;;;9.60;4.10;;;;;;;-148.88;79.49;75897.06;5012226;28;20041;-83
2022/06/12 02:56:48;;;;;;;11.27;4.30;;;;;;;-148.88;78.92;75901.13;5013954;28;20164;-83
2022/06/12 02:59:33;;;;;;;12.77;4.30;;;;;;;-148.88;79.43;75899.09;5013505;28;20017;-84
2022/06/12 03:02:09;;;;;;;11.27;4.35;;;;;;;-148.88;78.87;75890.97;5013441;28;20022;-83
2022/06/12 03:04:45;;;;;;;12.45;4.95;;;;;;;-148.88;79.53;75903.16;5012038;28;20060;-83
2022/06/12 03:07:11;;;;;;;12.63;4.80;;;;;;;-148.88;78.92;75899.09;5015353;28;20022;-84
2022/06/12 03:09:36;;;;;;;9.02;4.30;;;;;;;-148.88;79.17;75911.28;5031066;28;20034;-84
2022/06/12 03:12:03;;;;;;;13.85;5.13;;;;;;;-148.88;79.11;75913.31;5030424;28;20033;-84
2022/06/12 03:14:28;;;;;;;8.68;4.40;;;;;;;-148.88;79.39;75919.41;5015469;28;20022;-83
2022/06/12 03:16:54;;;;;;;11.48;4.43;;;;;;;-148.88;80.23;75919.41;5014858;28;20040;-84
2022/06/12 03:19:28;;;;;;;14.35;4.70;;;;;;;-148.88;80.77;75935.66;5015974;28;20037;-84
2022/06/12 03:22:29;;;;;;;12.73;4.22;;;;;;;-148.88;82.07;75951.91;5015711;28;20051;-84
2022/06/12 03:25:20;;;;;;;16.10;5.03;;;;;;;-148.88;81.75;75949.88;5006405;28;20042;-83
2022/06/12 03:28:11;;;;;;;12.80;4.65;;;;;;;-148.88;80.71;75935.66;5026771;23;20512;-81
2022/06/12 03:30:48;;;;;;;12.52;4.70;;;;;;;-148.88;80.53;75927.53;4999232;28;20113;-82
2022/06/12 03:33:48;;;;;;;14.10;4.88;;;;;;;-148.88;79.99;75917.38;4999828;28;20033;-82
2022/06/12 03:36:21;;;;;;;14.73;4.35;;;;;;;-148.88;80.50;75923.47;4999653;28;20029;-82
2022/06/12 03:39:14;;;;;;;18.33;5.38;;;;;;;-148.88;80.84;75933.63;5000276;28;20041;-82
2022/06/12 03:41:51;;;;;;;16.98;4.45;;;;;;;-148.88;80.32;75937.69;5014903;28;20026;-82
2022/06/12 03:44:31;;;;;;;14.85;4.78;;;;;;;-148.88;80.85;75947.84;4998302;28;20497;-82
2022/06/12 03:47:03;;;;;;;12.05;4.50;;;;;;;-148.88;81.18;75953.94;4994340;28;20030;-81
2022/06/12 03:49:46;;;;;;;11.70;4.47;;;;;;;-148.88;81.27;75953.94;4996701;28;20106;-81
2022/06/12 03:52:21;;;;;;;17.40;5.28;;;;;;;-148.88;81.47;75970.19;4997171;28;20113;-82
2022/06/12 03:55:07;;;;;;;14.48;4.55;;;;;;;-148.88;81.72;75960.03;4998319;28;20030;-81
2022/06/12 03:57:51;;;;;;;15.45;5.10;;;;;;;-148.88;81.91;75962.06;4998525;28;20097;-82
2022/06/12 04:00:37;;;;;;;11.43;4.68;;;;;;;-148.88;82.62;75960.03;4999128;28;20053;-81
2022/06/12 04:03:15;;;;;;;14.32;4.95;;;;;;;-148.88;83.85;75980.34;5004953;28;20086;-83
2022/06/12 04:05:54;;;;;;;11.73;5.10;;;;;;;-148.88;83.27;75970.19;5007127;28;20033;-85
2022/06/12 04:08:46;;;;;;;18.58;5.97;;;;;;;-148.88;82.99;75964.09;5002131;28;20503;-84
2022/06/12 04:11:14;;;;;;;15.52;5.30;;;;;;;-148.88;83.43;75960.03;5003274;28;20449;-85
2022/06/12 04:13:41;;;;;;;17.42;5.13;;;;;;;-148.88;83.99;75968.16;5017962;28;20086;-85
2022/06/12 04:16:34;;;;;;;13.20;4.97;;;;;;;-148.88;83.61;75960.03;5002615;28;20034;-85
2022/06/12 04:19:03;;;;;;;14.68;5.32;;;;;;;-148.88;84.03;75968.16;5004187;28;20046;-85
2022/06/12 04:21:28;;;;;;;15.70;5.10;;;;;;;-148.88;83.90;75964.09;5003362;28;20040;-85
2022/06/12 04:24:09;;;;;;;14.07;4.88;;;;;;;-148.88;83.91;75955.97;4999377;28;20026;-82
2022/06/12 04:26:42;;;;;;;13.57;4.57;;;;;;;-148.88;84.14;75949.88;4997026;28;20030;-82
2022/06/12 04:29:10;;;;;;;15.15;4.88;;;;;;;-148.88;84.03;75949.88;4997821;28;20457;-82
2022/06/12 04:31:37;;;;;;;16.65;5.22;;;;;;;-148.88;84.01;75945.81;5000004;28;20033;-83
2022/06/12 04:34:23;;;;;;;17.48;5.25;;;;;;;-148.88;84.46;75945.81;4998907;28;20405;-84
2022/06/12 04:36:53;;;;;;;12.10;4.78;;;;;;;-148.88;83.99;75935.66;4999358;28;20022;-84
2022/06/12 04:39:22;;;;;;;14.85;5.25;;;;;;;-148.88;84.28;75937.69;5000539;28;20089;-82
2022/06/12 04:41:48;;;;;;;16.15;4.78;;;;;;;-148.88;84.35;75943.78;5000188;28;20026;-82
2022/06/12 04:44:14;;;;;;;16.92;5.03;;;;;;;-148.88;84.53;75933.63;5000653;28;20053;-83
2022/06/12 04:46:44;;;;;;;12.82;4.82;;;;;;;-148.88;84.24;75935.66;5001224;28;20428;-82
2022/06/12 04:49:14;;;;;;;15.65;4.68;;;;;;;-148.88;83.91;75925.50;5000032;28;20029;-82
2022/06/12 04:51:40;;;;;;;13.90;4.63;;;;;;;-148.88;83.80;75921.44;5001727;28;20034;-84
2022/06/12 04:54:06;;;;;;;13.75;4.63;;;;;;;-148.88;84.12;75917.38;4999526;28;20420;-83
2022/06/12 04:56:34;;;;;;;12.95;3.95;;;;;;;-148.88;84.13;75907.22;5000344;28;20113;-84
2022/06/12 04:58:59;;;;;;;11.68;4.30;;;;;;;-148.88;83.84;75901.13;5003045;28;20026;-85
2022/06/12 05:01:25;;;;;;;17.65;4.88;;;;;;;-148.88;84.88;75903.16;5000931;28;20028;-81
2022/06/12 05:03:51;;;;;;;14.77;4.90;;;;;;;-148.88;85.61;75901.13;4998855;28;20053;-82
2022/06/12 05:06:17;;;;;;;14.77;4.95;;;;;;;-148.88;85.39;75903.16;4996831;28;20026;-82
2022/06/12 05:08:44;;;;;;;11.35;4.15;;;;;;;-148.88;85.98;75899.09;4998380;28;20116;-84
2022/06/12 05:11:10;;;;;;;15.55;5.07;;;;;;;-148.88;86.86;75893.00;4997632;28;20022;-82
2022/06/12 05:13:39;;;;;;;15.93;4.75;;;;;;;-148.88;86.94;75888.94;4998189;28;20029;-82
2022/06/12 05:16:05;;;;;;;11.30;4.75;;;;;;;-148.88;87.30;75884.88;4999597;28;20033;-85
2022/06/12 05:18:31;;;;;;;15.20;4.72;;;;;;;-148.88;86.59;75897.06;4998952;28;20029;-84
2022/06/12 05:20:57;;;;;;;16.05;5.38;;;;;;;-148.88;86.20;75897.06;5018850;28;20113;-83
2022/06/12 05:23:23;;;;;;;16.38;5.00;;;;;;;-148.88;84.98;75888.94;5004946;28;20025;-85
2022/06/12 05:25:50;;;;;;;18.98;5.40;;;;;;;-148.88;85.54;75882.84;5005492;28;20023;-84
2022/06/12 05:28:17;;;;;;;20.05;5.85;;;;;;;-148.88;85.40;75878.78;5002531;28;20085;-85
2022/06/12 05:30:43;;;;;;;13.73;4.68;;;;;;;-148.88;84.52;75866.59;5023697;28;20535;-84
2022/06/12 05:33:10;;;;;;;15.35;4.45;;;;;;;-148.88;83.89;75866.59;5006527;28;20027;-84
2022/06/12 05:35:37;;;;;;;12.30;3.95;;;;;;;-148.88;81.36;75856.44;5006926;28;20026;-82
2022/06/12 05:38:04;;;;;;;13.43;4.22;;;;;;;-148.88;79.02;75840.19;5006167;28;20481;-84
2022/06/12 05:40:33;;;;;;;14.52;4.30;;;;;;;-148.88;79.76;75828.00;5003808;28;20057;-82
2022/06/12 05:42:58;;;;;;;13.88;4.15;;;;;;;-148.88;78.91;75815.81;4999441;28;20049;-84
2022/06/12 05:45:26;;;;;;;11.82;3.72;;;;;;;-148.88;78.02;75815.81;4999765;28;20397;-84
2022/06/12 05:47:57;;;;;;;14.65;3.90;;;;;;;-148.88;78.25;75805.66;4999714;28;20030;-84
2022/06/12 05:50:25;;;;;;;12.75;3.58;;;;;;;-148.88;77.31;75797.53;5000231;28;20037;-85
2022/06/12 05:52:51;;;;;;;13.13;3.53;;;;;;;-148.88;75.90;75789.41;5001726;28;20057;-85
2022/06/12 05:55:16;;;;;;;10.40;3.00;;;;;;;-148.88;75.21;75773.16;5003571;28;20026;-81
2022/06/12 05:57:42;;;;;;;11.32;3.72;;;;;;;-148.88;74.06;75769.09;5003679;28;20054;-84
2022/06/12 06:00:15;;;;;;;10.10;3.10;;;;;;;-148.88;73.14;75767.06;5001487;28;20034;-83
2022/06/12 06:02:42;;;;;;;13.20;3.17;;;;;;;-148.88;73.03;75752.84;5000897;28;20026;-85
2022/06/12 06:05:07;;;;;;;8.70;2.80;;;;;;;-148.88;72.68;75748.78;5003198;28;20034;-83
2022/06/12 06:07:34;;;;;;;8.70;2.65;;;;;;;-148.88;71.38;75732.53;5004447;28;20037;-83
2022/06/12 06:10:00;;;;;;;15.50;3.45;;;;;;;-148.88;69.71;75724.41;5006158;28;20030;-85
2022/06/12 06:12:25;;;;;;;9.77;2.88;;;;;;;-148.88;69.02;75722.38;5006500;28;20033;-85
2022/06/12 06:14:51;;;;;;;9.02;2.40;;;;;;;-148.88;67.64;75714.25;5007852;28;20054;-85
2022/06/12 06:17:16;;;;;;;7.05;2.13;;;;;;;-148.88;64.33;75704.09;5006086;28;20037;-84
2022/06/12 06:19:41;;;;;;;9.10;2.13;;;;;;;-148.88;64.62;75700.03;5006708;28;20030;-84
2022/06/12 06:22:07;;;;;;;9.93;2.30;;;;;;;-148.88;65.60;75691.91;4997596;28;20496;-84
2022/06/12 06:24:32;;;;;;;10.93;2.30;;;;;;;-148.88;64.33;75691.91;4997878;28;20105;-83
2022/06/12 06:26:58;;;;;;;6.30;1.80;;;;;;;-148.88;63.08;75685.81;4997115;28;20030;-83
2022/06/12 06:29:23;;;;;;;8.20;1.60;;;;;;;-148.88;62.07;75683.78;5000238;28;20081;-81
2022/06/12 06:31:48;;;;;;;6.30;2.13;;;;;;;-148.88;62.60;75669.56;5001465;28;20035;-84
2022/06/12 06:34:14;;;;;;;8.63;2.08;;;;;;;-148.88;64.53;75663.47;5001532;28;20469;-82
2022/06/12 06:36:39;;;;;;;8.40;2.10;;;;;;;-148.88;63.94;75655.34;5002361;28;20030;-82
2022/06/12 06:39:05;;;;;;;6.05;1.73;;;;;;;-148.88;62.73;75655.34;5001378;28;20018;-82
2022/06/12 06:41:30;;;;;;;5.20;1.67;;;;;;;-148.88;61.86;75645.19;5002771;28;20018;-84
2022/06/12 06:46:42;;;;;;;9.57;1.90;;;;;;;-148.88;62.01;75630.97;4959600;28;20046;-84
2022/06/12 06:49:08;;;;;;;8.55;1.92;;;;;;;-148.88;60.79;75614.72;5001268;28;20484;-84
2022/06/12 06:51:34;;;;;;;6.20;1.92;;;;;;;-148.88;60.01;75618.78;5004914;28;20053;-82
2022/06/12 06:54:00;;;;;;;6.65;1.50;;;;;;;-148.88;59.98;75618.78;5004186;28;20029;-82
2022/06/12 06:56:26;;;;;;;6.70;1.75;;;;;;;-148.88;61.06;75610.66;5005405;28;20022;-83
2022/06/12 06:58:52;;;;;;;5.82;1.60;;;;;;;-148.88;60.65;75594.44;5000376;28;20030;-83
2022/06/12 07:01:17;;;;;;;7.68;2.10;;;;;;;-148.88;60.59;75596.44;4995075;28;20029;-80
2022/06/12 07:03:43;;;;;;;9.07;1.85;;;;;;;-148.88;61.19;75570.03;4995240;28;20380;-82
2022/06/12 07:06:11;;;;;;;9.65;2.00;;;;;;;-148.88;60.71;75572.09;4997960;28;20029;-84
2022/06/12 07:08:37;;;;;;;7.03;1.75;;;;;;;-148.88;60.77;75563.97;5000145;28;20030;-83
2022/06/12 07:11:02;;;;;;;6.90;1.83;;;;;;;-148.88;61.49;75557.88;4998959;28;20033;-84
2022/06/12 07:13:27;;;;;;;9.20;2.05;;;;;;;-148.88;59.98;75549.75;4998954;28;20388;-83
2022/06/12 07:15:54;;;;;;;11.80;2.40;;;;;;;-148.88;60.66;75533.50;4998854;28;20018;-83
2022/06/12 07:18:19;;;;;;;9.43;2.08;;;;;;;-148.88;61.42;75521.31;5001467;28;20038;-84
2022/06/12 07:20:52;;;;;;;6.97;2.17;;;;;;;-148.88;58.33;75521.31;4999492;28;20023;-83
2022/06/12 07:23:20;;;;;;;9.30;2.15;;;;;;;-148.88;57.86;75505.06;5014319;28;20038;-82
2022/06/12 07:25:52;;;;;;;7.10;2.05;;;;;;;-148.88;57.20;75492.88;4997530;28;20029;-83
2022/06/12 07:28:18;;;;;;;5.78;1.65;;;;;;;-148.88;56.00;75488.81;4999284;28;20161;-84
2022/06/12 07:30:43;;;;;;;8.68;2.55;;;;;;;-148.88;56.42;75482.72;4997547;28;20034;-84
2022/06/12 07:33:09;;;;;;;9.77;2.25;;;;;;;-148.88;55.78;75486.78;5000383;28;20385;-85
2022/06/12 07:35:37;;;;;;;10.85;2.20;;;;;;;-148.88;55.58;75474.59;4999349;28;20027;-84
2022/06/12 07:38:03;;;;;;;10.32;2.13;;;;;;;-148.88;57.52;75456.31;4997638;28;20064;-83
2022/06/12 07:40:52;;;;;;;7.47;2.15;;;;;;;-148.88;57.58;75450.22;4995770;28;20018;-85
2022/06/12 07:43:18;;;;;;;9.23;2.40;;;;;;;-148.88;56.32;75460.38;4995012;28;20113;-81
2022/06/12 07:45:44;;;;;;;13.18;2.40;;;;;;;-148.88;57.49;75446.16;4998392;28;20065;-84
2022/06/12 07:48:10;;;;;;;11.27;2.15;;;;;;;-148.88;55.94;75444.13;4997576;28;20026;-84
2022/06/12 07:50:39;;;;;;;9.20;2.40;;;;;;;-148.88;56.47;75440.06;4999680;28;20034;-84
2022/06/12 07:53:06;;;;;;;7.63;2.72;;;;;;;-148.88;55.88;75440.06;5001292;28;20026;-83
2022/06/12 07:55:32;;;;;;;17.00;2.45;;;;;;;-148.88;55.68;75436.00;4999017;28;20022;-86
2022/06/12 07:58:00;;;;;;;8.43;2.30;;;;;;;-148.88;55.12;75431.94;4996397;28;20373;-83
2022/06/12 08:00:26;;;;;;;7.00;2.17;;;;;;;-148.88;55.18;75407.56;5000602;28;20030;-84
2022/06/12 08:02:57;;;;;;;6.70;2.40;;;;;;;-148.88;55.76;75405.53;5002334;28;20023;-84
2022/06/12 08:05:26;;;;;;;12.68;2.75;;;;;;;-148.88;56.55;75393.34;5000933;28;20023;-84
2022/06/12 08:07:54;;;;;;;7.93;2.42;;;;;;;-148.88;54.09;75397.41;4999209;28;20087;-85
2022/06/12 08:10:19;;;;;;;9.13;2.63;;;;;;;-148.88;54.05;75403.50;4999539;28;20458;-86
2022/06/12 08:12:55;;;;;;;9.07;2.72;;;;;;;-148.88;54.16;75395.38;5015647;28;20058;-85
2022/06/12 08:15:27;;;;;;;10.18;3.30;;;;;;;-148.88;54.47;75383.19;5001316;28;20046;-86
2022/06/12 08:17:56;;;;;;;11.00;2.90;;;;;;;-148.88;55.16;75381.16;4997832;28;20038;-84
2022/06/12 08:20:33;;;;;;;8.38;2.80;;;;;;;-148.88;54.58;75360.84;4996587;28;20023;-85
2022/06/12 08:23:04;;;;;;;11.70;3.53;;;;;;;-148.88;54.78;75368.97;4999341;28;20508;-85
2022/06/12 08:25:36;;;;;;;6.93;2.83;;;;;;;-148.88;54.19;75366.94;4995142;28;20029;-85
2022/06/12 08:28:03;;;;;;;11.75;3.13;;;;;;;-148.88;53.90;75352.72;4997041;28;20030;-83
2022/06/12 08:30:29;;;;;;;9.18;2.75;;;;;;;-148.88;54.07;75342.56;5001574;28;20022;-84
2022/06/12 08:33:17;;;;;;;9.82;3.00;;;;;;;-148.88;53.15;75342.56;5002112;28;20066;-83
2022/06/12 08:35:43;;;;;;;10.10;2.78;;;;;;;-148.88;53.21;75326.31;5001664;28;20030;-84
2022/06/12 08:38:08;;;;;;;6.97;2.20;;;;;;;-148.88;53.16;75310.06;5020251;28;20054;-84
2022/06/12 08:40:59;;;;;;;7.05;1.77;;;;;;;-148.88;50.66;75299.91;5008591;28;20041;-84
2022/06/12 08:43:40;;;;;;;10.15;2.00;;;;;;;-148.88;49.72;75295.84;5023166;28;20029;-84
2022/06/12 08:46:17;;;;;;;4.72;1.83;;;;;;;-148.88;47.81;75306.00;5002899;28;20117;-84
2022/06/12 08:48:56;;;;;;;7.15;1.80;;;;;;;-148.88;48.85;75281.66;5008363;28;20088;-84
2022/06/12 08:51:31;;;;;;;7.47;1.60;;;;;;;-148.88;47.47;75293.81;5009047;28;20030;-82
2022/06/12 08:54:04;;;;;;;5.05;1.83;;;;;;;-148.88;47.76;75275.56;5006013;28;20033;-84
2022/06/12 08:56:38;;;;;;;;;;;;;;;-148.88;47.06;75273.53;5002081;28;20142;-84
2022/06/12 08:59:49;;;;;;;5.10;1.20;;;;;;;-148.88;46.16;75241.03;5015236;28;19910;-85
2022/06/12 09:02:22;;;;;;;7.18;1.58;;;;;;;-148.88;47.61;75226.81;4999257;28;20109;-85
2022/06/12 09:04:51;;;;;;;4.18;1.50;;;;;;;-148.88;47.17;75212.59;5000655;28;20432;-85
2022/06/12 09:07:25;;;;;;;5.90;1.70;;;;;;;-148.88;48.58;75192.28;4999667;28;20114;-85
2022/06/12 09:10:18;;;;;;;7.25;1.48;;;;;;;-148.88;47.57;75218.69;4998345;28;20033;-85
2022/06/12 09:13:15;;;;;;;7.50;1.83;;;;;;;-148.88;46.31;75198.38;4997704;28;20026;-86
2022/06/12 09:15:46;;;;;;;5.82;1.70;;;;;;;-148.88;47.03;75208.53;5002902;28;20406;-85
2022/06/12 09:18:31;;;;;;;4.32;1.02;;;;;;;-148.88;44.83;75182.13;5005588;28;20026;-86
2022/06/12 09:21:00;;;;;;;5.88;1.45;;;;;;;-148.88;44.97;75178.06;5019893;28;20046;-84
2022/06/12 09:23:26;;;;;;;7.30;1.35;;;;;;;-148.88;43.92;75129.31;5005082;28;20030;-85
2022/06/12 09:28:56;;;;;;;4.65;1.35;;;;;;;-148.88;41.87;75127.28;5037019;23;20303;-82
2022/06/12 09:31:30;;;;;;;6.03;1.52;;;;;;;-148.88;43.71;75111.03;5016962;28;20026;-83
2022/06/12 09:34:11;;;;;;;4.80;1.30;;;;;;;-148.88;44.77;75078.56;5016153;28;20022;-84
2022/06/12 09:36:46;;;;;;;6.93;1.33;;;;;;;-148.88;44.94;75076.53;5015355;28;20029;-83
2022/06/12 09:39:22;;;;;;;7.93;1.73;;;;;;;-148.88;43.33;75078.56;5015819;28;20101;-83
2022/06/12 09:42:14;;;;;;;4.05;1.20;;;;;;;-148.88;40.38;75109.00;5016193;28;20121;-85
2022/06/12 09:44:50;;;;;;;7.68;1.27;;;;;;;-148.88;42.07;75078.56;5009847;28;20408;-84
2022/06/12 09:47:46;;;;;;;6.07;1.20;;;;;;;-148.88;40.94;75082.63;5015895;28;20049;-82
2022/06/12 09:50:28;;;;;;;5.18;1.40;;;;;;;-148.88;41.20;75023.72;5015473;28;20086;-84
2022/06/12 09:53:30;;;;;;;6.43;1.60;;;;;;;-148.88;39.55;75035.91;5032074;28;20096;-84
2022/06/12 09:56:04;;;;;;;5.20;1.00;;;;;;;-148.88;40.54;74985.13;5015269;28;20066;-84
2022/06/12 09:58:40;;;;;;;4.72;1.00;;;;;;;-148.88;39.35;74952.63;5015567;28;20057;-85
2022/06/12 10:01:25;;;;;;;4.07;1.00;;;;;;;-148.88;38.29;74960.75;5016172;28;20025;-83
2022/06/12 10:04:01;;;;;;;5.85;0.80;;;;;;;-148.88;39.01;74997.31;5016838;28;20040;-84
2022/06/12 10:06:33;;;;;;;5.95;1.00;;;;;;;-148.88;39.07;74958.72;5016197;28;20022;-83
2022/06/12 10:09:20;;;;;;;5.20;1.45;;;;;;;-148.88;38.34;74972.94;5015398;28;20101;-84
2022/06/12 10:11:48;;;;;;;3.45;0.80;;;;;;;-148.88;37.88;74936.41;5015338;28;20030;-85
2022/06/12 10:14:23;;;;;;;4.15;1.02;;;;;;;-148.88;37.57;74960.75;5015554;28;20033;-83
2022/06/12 10:16:56;;;;;;;3.53;0.70;;;;;;;-148.88;37.54;74873.44;5014052;28;20030;-84
2022/06/12 10:19:43;;;;;;;3.85;0.80;;;;;;;-148.88;36.52;74877.50;5015511;28;20435;-84
2022/06/12 10:22:19;;;;;;;3.30;0.80;;;;;;;-148.88;36.23;74822.66;5014801;28;20034;-81
2022/06/12 10:24:44;;;;;;;2.90;0.60;;;;;;;-148.88;34.12;74812.53;5015793;28;20029;-83
2022/06/12 10:27:13;;;;;;;2.58;0.70;;;;;;;-148.88;35.98;74867.34;5016321;28;20029;-84
2022/06/12 10:29:50;;;;;;;4.47;0.90;;;;;;;-148.88;35.57;74838.91;5014624;28;20044;-81
2022/06/12 10:32:20;;;;;;;3.15;0.70;;;;;;;-148.88;34.90;74863.28;5014807;28;20026;-81
2022/06/12 10:34:45;;;;;;;3.75;0.80;;;;;;;-148.88;35.91;74891.72;5015954;28;20065;-84
2022/06/12 10:37:29;;;;;;;4.55;0.93;;;;;;;-148.88;35.38;74855.16;5015534;28;20042;-84
2022/06/12 10:40:02;;;;;;;3.70;0.70;;;;;;;-148.88;36.90;74840.94;5014026;28;20022;-84
2022/06/12 10:42:57;;;;;;;3.40;1.00;;;;;;;-148.88;35.72;74838.91;5014837;28;20018;-84
2022/06/12 10:45:32;;;;;;;3.45;0.98;;;;;;;-148.88;34.76;74834.84;5014805;28;20037;-83
2022/06/12 10:48:02;;;;;;;3.40;0.70;;;;;;;-148.88;35.63;74891.72;5014231;28;20026;-83
2022/06/12 10:50:50;;;;;;;5.43;0.95;;;;;;;-148.88;36.07;74851.09;5014257;28;20033;-82
2022/06/12 10:53:17;;;;;;;3.47;0.82;;;;;;;-148.88;35.77;74871.41;5014096;28;20025;-81
2022/06/12 10:56:15;;;;;;;2.65;0.80;;;;;;;-148.88;36.84;74903.91;5012869;28;20104;-83
2022/06/12 10:58:52;;;;;;;3.90;1.00;;;;;;;-148.88;35.74;74910.00;5013867;28;20077;-83
2022/06/12 11:01:23;;;;;;;3.90;0.98;;;;;;;-148.88;36.26;74930.31;5012642;28;20036;-83
2022/06/12 11:04:04;;;;;;;5.47;1.02;;;;;;;-148.88;35.02;74871.41;5012772;28;20538;-83
2022/06/12 11:06:48;;;;;;;3.85;0.90;;;;;;;-148.88;36.10;74814.53;5012513;28;20357;-82
2022/06/12 11:09:40;;;;;;;4.28;1.13;;;;;;;-148.88;34.80;74788.16;5013814;28;20030;-81
2022/06/12 11:12:38;;;;;;;3.83;0.85;;;;;;;-148.88;34.79;74814.53;5013862;28;20096;-82
2022/06/12 11:15:07;;;;;;;4.13;0.90;;;;;;;-148.88;34.59;74788.16;5012385;28;20022;-82
2022/06/12 11:17:51;;;;;;;5.57;0.98;;;;;;;-148.88;35.90;74788.16;5012357;28;20037;-83
2022/06/12 11:20:36;;;;;;;5.50;1.15;;;;;;;-148.88;35.41;74818.59;5012536;28;20018;-82
2022/06/12 11:23:10;;;;;;;5.20;1.23;;;;;;;-148.88;36.05;74761.75;5014429;28;20041;-82
2022/06/12 11:26:06;;;;;;;4.45;0.93;;;;;;;-148.88;34.19;74773.94;5014161;28;20029;-80
2022/06/12 11:28:50;;;;;;;4.20;1.00;;;;;;;-148.88;35.35;74788.16;5012114;28;20037;-81
2022/06/12 11:31:26;;;;;;;3.80;1.35;;;;;;;-148.88;35.19;74759.72;5013644;28;20030;-82
2022/06/12 11:34:07;;;;;;;8.15;1.30;;;;;;;-148.88;35.20;74757.69;5013609;28;20022;-82
2022/06/12 11:36:58;;;;;;;4.72;1.10;;;;;;;-148.88;35.68;74710.97;5028352;28;20033;-82
2022/06/12 11:39:37;;;;;;;4.60;1.17;;;;;;;-148.88;35.84;74680.53;5013633;28;20077;-84
2022/06/12 11:42:30;;;;;;;5.88;1.00;;;;;;;-148.88;35.40;74708.94;5011935;28;20083;-83
2022/06/12 11:45:13;;;;;;;7.00;1.25;;;;;;;-148.88;35.51;74692.72;5028408;28;20029;-83
2022/06/12 11:48:00;;;;;;;4.63;1.20;;;;;;;-148.88;36.36;74692.72;5013047;28;20515;-83
2022/06/12 11:50:40;;;;;;;4.65;1.10;;;;;;;-148.88;35.25;74708.94;5012026;28;20038;-83
2022/06/12 11:53:18;;;;;;;6.68;1.27;;;;;;;-148.88;35.39;74794.25;5013101;28;20030;-83
2022/06/12 11:56:04;;;;;;;4.65;1.23;;;;;;;-148.88;35.84;74786.13;5014229;28;20096;-82